Time;durP1;ratioP1;P1;durP2;ratioP2;P2;SDS_P1;SDS_P2;PMS_P1;PMS_P2;Temp;Humidity;BMP_temperature;BMP_pressure;BME280_temperature;BME280_humidity;BME280_pressure;Samples;Min_cycle;Max_cycle;Signal;HPM_P1;HPM_P2
2024/01/23 00:00:47;;;;;;;3.65;0.95;;;;;;;;;;5054943;28;20029;-53
2024/01/23 00:03:13;;;;;;;2.42;0.60;;;;;;;;;;5055193;28;20098;-57
2024/01/23 00:05:39;;;;;;;4.50;0.70;;;;;;;;;;5055159;28;20033;-56
2024/01/23 00:08:05;;;;;;;3.00;0.60;;;;;;;;;;5055388;28;20078;-53
2024/01/23 00:10:31;;;;;;;1.23;0.55;;;;;;;;;;5054777;28;20379;-55
2024/01/23 00:12:57;;;;;;;2.15;0.82;;;;;;;;;;5055229;28;20029;-56
2024/01/23 00:15:23;;;;;;;1.40;0.63;;;;;;;;;;5054656;28;20029;-56
2024/01/23 00:17:49;;;;;;;1.48;0.63;;;;;;;;;;5055174;28;20029;-56
2024/01/23 00:20:15;;;;;;;2.55;0.80;;;;;;;;;;5054449;28;20032;-56
2024/01/23 00:22:41;;;;;;;5.05;1.13;;;;;;;;;;5054458;28;20032;-54
2024/01/23 00:25:07;;;;;;;1.92;0.47;;;;;;;;;;5055009;28;20029;-56
2024/01/23 00:27:33;;;;;;;2.20;0.90;;;;;;;;;;5054791;28;20442;-57
2024/01/23 00:29:59;;;;;;;1.92;0.70;;;;;;;;;;5054428;28;20056;-52
2024/01/23 00:32:30;;;;;;;0.70;0.35;;;;;;;;;;5054664;28;20388;-52
2024/01/23 00:34:56;;;;;;;1.77;0.80;;;;;;;;;;5054622;28;20029;-55
2024/01/23 00:37:22;;;;;;;2.67;0.80;;;;;;;;;;5054273;28;20037;-56
2024/01/23 00:39:48;;;;;;;1.42;0.70;;;;;;;;;;5054224;28;20454;-55
2024/01/23 00:42:14;;;;;;;3.30;1.23;;;;;;;;;;5054105;28;20033;-54
2024/01/23 00:44:40;;;;;;;2.05;0.80;;;;;;;;;;5054149;28;20029;-54
2024/01/23 00:47:06;;;;;;;1.35;0.65;;;;;;;;;;5054115;28;20028;-55
2024/01/23 00:49:32;;;;;;;0.90;0.73;;;;;;;;;;5054135;28;20025;-56
2024/01/23 00:51:58;;;;;;;1.48;0.70;;;;;;;;;;5054019;28;20029;-56
2024/01/23 00:54:23;;;;;;;0.50;0.35;;;;;;;;;;5053930;28;20095;-54
2024/01/23 00:56:49;;;;;;;5.30;1.02;;;;;;;;;;5054498;28;20127;-54
2024/01/23 00:59:15;;;;;;;3.00;0.70;;;;;;;;;;5054521;28;20032;-53
2024/01/23 01:01:41;;;;;;;4.30;0.93;;;;;;;;;;5053793;28;20029;-54
2024/01/23 01:04:07;;;;;;;2.92;1.20;;;;;;;;;;5054106;28;20031;-54
2024/01/23 01:06:33;;;;;;;3.40;1.05;;;;;;;;;;5053683;28;20099;-55
2024/01/23 01:08:59;;;;;;;2.05;0.82;;;;;;;;;;5054116;28;20025;-55
2024/01/23 01:11:25;;;;;;;3.35;1.00;;;;;;;;;;5054249;28;20025;-55
2024/01/23 01:13:51;;;;;;;2.63;1.33;;;;;;;;;;5054137;28;20048;-54
2024/01/23 01:16:17;;;;;;;3.92;1.02;;;;;;;;;;5054256;28;20021;-53
2024/01/23 01:18:43;;;;;;;3.80;1.20;;;;;;;;;;5054551;28;20021;-56
2024/01/23 01:21:09;;;;;;;1.13;0.40;;;;;;;;;;5053706;28;20028;-51
2024/01/23 01:23:35;;;;;;;3.50;1.00;;;;;;;;;;5053301;28;20040;-55
2024/01/23 01:26:01;;;;;;;3.22;0.90;;;;;;;;;;5053642;28;20029;-54
2024/01/23 01:28:27;;;;;;;2.70;0.95;;;;;;;;;;5054208;28;20451;-53
2024/01/23 01:30:53;;;;;;;6.45;1.10;;;;;;;;;;5053930;28;20029;-54
2024/01/23 01:33:20;;;;;;;5.30;1.30;;;;;;;;;;5054104;28;20048;-53
2024/01/23 01:35:46;;;;;;;4.78;1.02;;;;;;;;;;5054372;28;20071;-56
2024/01/23 01:38:12;;;;;;;6.38;0.98;;;;;;;;;;5054141;28;20038;-55
2024/01/23 01:40:38;;;;;;;4.15;0.77;;;;;;;;;;5053477;28;20525;-54
2024/01/23 01:43:04;;;;;;;1.55;0.60;;;;;;;;;;5053444;28;20036;-52
2024/01/23 01:45:30;;;;;;;1.23;0.68;;;;;;;;;;5053488;28;20375;-56
2024/01/23 01:47:56;;;;;;;2.40;1.10;;;;;;;;;;5054289;28;20439;-53
2024/01/23 01:50:22;;;;;;;3.20;0.77;;;;;;;;;;5053927;28;20032;-54
2024/01/23 01:52:48;;;;;;;1.50;0.52;;;;;;;;;;5053676;28;20029;-56
2024/01/23 01:55:14;;;;;;;3.17;1.23;;;;;;;;;;5053294;28;20191;-56
2024/01/23 01:57:40;;;;;;;6.65;0.80;;;;;;;;;;5053707;28;20053;-57
2024/01/23 02:00:08;;;;;;;4.90;0.68;;;;;;;;;;5053336;28;20033;-56
2024/01/23 02:02:36;;;;;;;2.78;0.85;;;;;;;;;;5053484;28;20116;-57
2024/01/23 02:05:02;;;;;;;5.82;1.33;;;;;;;;;;5053490;28;20040;-53
2024/01/23 02:07:28;;;;;;;5.45;1.08;;;;;;;;;;5053851;28;20032;-55
2024/01/23 02:09:54;;;;;;;1.42;0.73;;;;;;;;;;5053225;28;20037;-55
2024/01/23 02:12:20;;;;;;;1.75;0.57;;;;;;;;;;5053247;28;20106;-56
2024/01/23 02:14:46;;;;;;;3.08;1.00;;;;;;;;;;5053150;28;20029;-56
2024/01/23 02:17:12;;;;;;;8.90;1.40;;;;;;;;;;5053681;28;20025;-56
2024/01/23 02:19:38;;;;;;;3.28;0.90;;;;;;;;;;5057256;28;20470;-53
2024/01/23 02:22:04;;;;;;;1.83;0.65;;;;;;;;;;5056788;28;20036;-53
2024/01/23 02:24:30;;;;;;;7.57;1.40;;;;;;;;;;5057145;28;20029;-56
2024/01/23 02:26:56;;;;;;;8.40;1.90;;;;;;;;;;5056768;28;20021;-55
2024/01/23 02:29:22;;;;;;;2.08;1.00;;;;;;;;;;5057565;28;20025;-55
2024/01/23 02:31:48;;;;;;;4.25;1.10;;;;;;;;;;5056920;28;20032;-52
2024/01/23 02:34:14;;;;;;;3.83;1.05;;;;;;;;;;5056930;28;20029;-55
2024/01/23 02:36:41;;;;;;;3.25;1.00;;;;;;;;;;5057296;28;20029;-56
2024/01/23 02:39:07;;;;;;;1.80;0.90;;;;;;;;;;5056953;28;20025;-55
2024/01/23 02:41:33;;;;;;;1.50;0.85;;;;;;;;;;5056406;28;20052;-54
2024/01/23 02:43:59;;;;;;;2.75;0.73;;;;;;;;;;5056505;28;20111;-55
2024/01/23 02:46:25;;;;;;;5.80;0.80;;;;;;;;;;5056411;28;20370;-53
2024/01/23 02:48:51;;;;;;;3.55;1.35;;;;;;;;;;5056546;28;20052;-55
2024/01/23 02:51:18;;;;;;;2.63;0.65;;;;;;;;;;5056326;28;20090;-55
2024/01/23 02:53:44;;;;;;;1.67;0.82;;;;;;;;;;5056229;28;20064;-54
2024/01/23 02:56:22;;;;;;;4.65;0.90;;;;;;;;;;5056316;28;20049;-55
2024/01/23 02:58:48;;;;;;;5.10;0.90;;;;;;;;;;5056803;28;20052;-55
2024/01/23 03:01:14;;;;;;;5.13;1.92;;;;;;;;;;5056993;28;20156;-54
2024/01/23 03:03:40;;;;;;;7.22;1.45;;;;;;;;;;5055999;28;20064;-54
2024/01/23 03:06:06;;;;;;;4.80;1.42;;;;;;;;;;5056116;28;20029;-53
2024/01/23 03:08:32;;;;;;;2.53;0.60;;;;;;;;;;5055808;28;20035;-55
2024/01/23 03:10:58;;;;;;;2.75;1.20;;;;;;;;;;5056038;28;20119;-56
2024/01/23 03:13:24;;;;;;;3.17;0.95;;;;;;;;;;5056441;28;20064;-56
2024/01/23 03:15:52;;;;;;;4.10;1.33;;;;;;;;;;5055916;28;20025;-56
2024/01/23 03:18:18;;;;;;;3.90;0.90;;;;;;;;;;5055877;28;20028;-56
2024/01/23 03:20:43;;;;;;;5.78;1.40;;;;;;;;;;5055536;28;20029;-54
2024/01/23 03:23:10;;;;;;;1.23;0.80;;;;;;;;;;5055919;28;20029;-55
2024/01/23 03:25:36;;;;;;;7.55;1.30;;;;;;;;;;5055712;28;20037;-56
2024/01/23 03:28:02;;;;;;;7.80;1.65;;;;;;;;;;5055993;28;20079;-54
2024/01/23 03:30:29;;;;;;;7.25;2.15;;;;;;;;;;5055407;28;20048;-54
2024/01/23 03:32:55;;;;;;;5.30;1.48;;;;;;;;;;5055566;28;20032;-57
2024/01/23 03:35:20;;;;;;;7.90;1.35;;;;;;;;;;5056058;28;20032;-53
2024/01/23 03:37:46;;;;;;;4.13;1.50;;;;;;;;;;5055995;28;20439;-53
2024/01/23 03:40:13;;;;;;;3.88;1.27;;;;;;;;;;5055703;28;20032;-56
2024/01/23 03:42:39;;;;;;;9.68;0.88;;;;;;;;;;5055338;28;20025;-52
2024/01/23 03:45:05;;;;;;;7.57;1.35;;;;;;;;;;5055627;28;20052;-55
2024/01/23 03:47:31;;;;;;;3.53;1.77;;;;;;;;;;5055608;28;20021;-55
2024/01/23 03:49:57;;;;;;;6.03;1.50;;;;;;;;;;5055017;28;20036;-56
2024/01/23 03:52:23;;;;;;;9.05;1.27;;;;;;;;;;5054897;28;20112;-53
2024/01/23 03:54:49;;;;;;;5.22;0.98;;;;;;;;;;5054727;28;20045;-56
2024/01/23 03:57:15;;;;;;;9.85;1.55;;;;;;;;;;5055383;28;20037;-55
2024/01/23 03:59:45;;;;;;;4.93;1.38;;;;;;;;;;5055873;28;20032;-54
2024/01/23 04:02:11;;;;;;;6.32;1.08;;;;;;;;;;5054558;28;20502;-56
2024/01/23 04:04:36;;;;;;;8.85;1.38;;;;;;;;;;5054952;28;20043;-54
2024/01/23 04:07:04;;;;;;;6.07;1.73;;;;;;;;;;5054974;28;20021;-55
2024/01/23 04:09:30;;;;;;;5.90;1.90;;;;;;;;;;5054906;28;20071;-54
2024/01/23 04:11:56;;;;;;;6.20;1.85;;;;;;;;;;5055234;28;20405;-55
2024/01/23 04:14:22;;;;;;;5.35;1.58;;;;;;;;;;5054697;28;20021;-54
2024/01/23 04:16:48;;;;;;;2.97;0.95;;;;;;;;;;5054335;28;20025;-56
2024/01/23 04:19:14;;;;;;;5.55;1.98;;;;;;;;;;5055005;28;20151;-56
2024/01/23 04:21:40;;;;;;;4.68;2.10;;;;;;;;;;5054886;28;20032;-52
2024/01/23 04:24:07;;;;;;;6.78;2.10;;;;;;;;;;5054841;28;20033;-53
2024/01/23 04:26:33;;;;;;;6.78;1.30;;;;;;;;;;5054547;28;20025;-56
2024/01/23 04:28:59;;;;;;;5.03;1.65;;;;;;;;;;5054988;28;20025;-53
2024/01/23 04:31:25;;;;;;;5.40;2.17;;;;;;;;;;5054875;28;20039;-56
2024/01/23 04:33:52;;;;;;;4.20;1.25;;;;;;;;;;5054930;28;20075;-56
2024/01/23 04:36:18;;;;;;;7.90;2.08;;;;;;;;;;5055166;28;20039;-55
2024/01/23 04:38:44;;;;;;;2.28;1.00;;;;;;;;;;5054626;28;20378;-53
2024/01/23 04:41:11;;;;;;;7.63;1.25;;;;;;;;;;5054236;28;20036;-55
2024/01/23 04:43:37;;;;;;;5.63;1.27;;;;;;;;;;5054711;28;20128;-54
2024/01/23 04:46:03;;;;;;;7.75;1.60;;;;;;;;;;5054947;28;20443;-54
2024/01/23 04:48:29;;;;;;;6.90;1.42;;;;;;;;;;5055047;28;20347;-56
2024/01/23 04:50:55;;;;;;;9.23;1.80;;;;;;;;;;5054585;28;20036;-54
2024/01/23 04:53:21;;;;;;;1.92;1.05;;;;;;;;;;5054026;28;20025;-54
2024/01/23 04:55:47;;;;;;;7.55;1.48;;;;;;;;;;5053899;28;20049;-55
2024/01/23 04:58:13;;;;;;;5.32;1.13;;;;;;;;;;5054576;28;20024;-55
2024/01/23 05:00:39;;;;;;;8.20;1.70;;;;;;;;;;5053960;28;20025;-56
2024/01/23 05:03:05;;;;;;;7.03;1.95;;;;;;;;;;5053946;28;20064;-54
2024/01/23 05:05:31;;;;;;;6.15;0.85;;;;;;;;;;5054316;28;20447;-56
2024/01/23 05:07:57;;;;;;;10.98;1.63;;;;;;;;;;5054471;28;20035;-56
2024/01/23 05:10:23;;;;;;;6.07;1.15;;;;;;;;;;5054233;28;20029;-54
2024/01/23 05:12:49;;;;;;;4.68;1.50;;;;;;;;;;5054120;28;20033;-56
2024/01/23 05:15:15;;;;;;;6.97;1.58;;;;;;;;;;5053511;28;20063;-53
2024/01/23 05:17:41;;;;;;;6.15;1.40;;;;;;;;;;5053932;28;20049;-56
2024/01/23 05:20:07;;;;;;;4.45;1.40;;;;;;;;;;5053767;28;20481;-55
2024/01/23 05:22:34;;;;;;;9.55;1.52;;;;;;;;;;5053685;28;20032;-54
2024/01/23 05:25:00;;;;;;;8.82;2.28;;;;;;;;;;5054511;28;20037;-54
2024/01/23 05:27:26;;;;;;;2.78;1.08;;;;;;;;;;5053518;28;20048;-54
2024/01/23 05:29:52;;;;;;;8.15;0.80;;;;;;;;;;5053957;28;20398;-55
2024/01/23 05:32:18;;;;;;;7.18;1.15;;;;;;;;;;5053990;28;20032;-56
2024/01/23 05:34:44;;;;;;;4.30;1.67;;;;;;;;;;5053623;28;20029;-54
2024/01/23 05:37:11;;;;;;;3.35;0.73;;;;;;;;;;5053256;28;20468;-54
2024/01/23 05:39:37;;;;;;;4.72;0.77;;;;;;;;;;5053680;28;20025;-55
2024/01/23 05:42:03;;;;;;;3.90;1.38;;;;;;;;;;5053627;28;20455;-52
2024/01/23 05:44:30;;;;;;;6.32;0.82;;;;;;;;;;5053967;28;20431;-50
2024/01/23 05:46:56;;;;;;;1.83;0.93;;;;;;;;;;5053870;28;20090;-53
2024/01/23 05:49:22;;;;;;;5.85;0.77;;;;;;;;;;5053913;28;20021;-55
2024/01/23 05:51:48;;;;;;;6.10;0.93;;;;;;;;;;5054112;28;20116;-53
2024/01/23 05:54:14;;;;;;;4.22;1.02;;;;;;;;;;5056195;28;20139;-56
2024/01/23 05:56:40;;;;;;;2.75;0.63;;;;;;;;;;5057995;28;20104;-54
2024/01/23 05:59:05;;;;;;;2.55;0.82;;;;;;;;;;5057111;28;20507;-54
2024/01/23 06:01:32;;;;;;;2.17;0.50;;;;;;;;;;5057190;28;20025;-54
2024/01/23 06:03:58;;;;;;;1.45;0.40;;;;;;;;;;5057490;28;20036;-57
2024/01/23 06:06:24;;;;;;;1.50;0.73;;;;;;;;;;5057154;28;20021;-55
2024/01/23 06:08:50;;;;;;;1.90;0.82;;;;;;;;;;5056071;28;20028;-57
2024/01/23 06:11:16;;;;;;;3.05;0.40;;;;;;;;;;5056576;28;20032;-57
2024/01/23 06:13:42;;;;;;;1.27;0.50;;;;;;;;;;5056722;28;20029;-54
2024/01/23 06:16:08;;;;;;;4.75;0.65;;;;;;;;;;5057043;28;20454;-55
2024/01/23 06:18:35;;;;;;;2.20;0.60;;;;;;;;;;5057229;28;20075;-54
2024/01/23 06:21:01;;;;;;;0.77;0.38;;;;;;;;;;5056708;28;20025;-55
2024/01/23 06:23:27;;;;;;;2.95;0.55;;;;;;;;;;5056797;28;20331;-56
2024/01/23 06:25:53;;;;;;;1.70;0.90;;;;;;;;;;5056774;28;20094;-56
2024/01/23 06:28:19;;;;;;;1.45;0.45;;;;;;;;;;5057237;28;20116;-55
2024/01/23 06:30:45;;;;;;;1.67;0.40;;;;;;;;;;5056519;28;20076;-55
2024/01/23 06:33:12;;;;;;;2.15;0.43;;;;;;;;;;5057214;28;20033;-56
2024/01/23 06:35:38;;;;;;;1.05;0.50;;;;;;;;;;5056673;28;20036;-52
2024/01/23 06:38:04;;;;;;;2.10;0.32;;;;;;;;;;5057028;28;20025;-55
2024/01/23 06:40:30;;;;;;;1.92;0.60;;;;;;;;;;5056676;28;20100;-56
2024/01/23 06:42:56;;;;;;;1.00;0.57;;;;;;;;;;5056833;28;20028;-57
2024/01/23 06:45:22;;;;;;;2.22;0.43;;;;;;;;;;5056477;28;20029;-57
2024/01/23 06:47:48;;;;;;;1.42;0.20;;;;;;;;;;5056909;28;20111;-56
2024/01/23 06:50:14;;;;;;;0.43;0.20;;;;;;;;;;5057148;28;20079;-55
2024/01/23 06:52:40;;;;;;;4.05;0.88;;;;;;;;;;5056027;28;20071;-54
2024/01/23 06:55:06;;;;;;;0.52;0.13;;;;;;;;;;5056448;28;20467;-56
2024/01/23 06:57:32;;;;;;;2.55;0.30;;;;;;;;;;5056605;28;20025;-54
2024/01/23 06:59:58;;;;;;;1.17;0.38;;;;;;;;;;5056229;28;20029;-57
2024/01/23 07:02:24;;;;;;;1.00;0.40;;;;;;;;;;5056632;28;20039;-56
2024/01/23 07:04:50;;;;;;;0.57;0.28;;;;;;;;;;5055810;28;20379;-56
2024/01/23 07:07:16;;;;;;;1.23;0.55;;;;;;;;;;5056092;28;20024;-56
2024/01/23 07:09:42;;;;;;;0.10;0.10;;;;;;;;;;5056688;28;20029;-54
2024/01/23 07:12:08;;;;;;;0.47;0.13;;;;;;;;;;5055902;28;20450;-52
2024/01/23 07:14:34;;;;;;;2.58;0.30;;;;;;;;;;5055807;28;20029;-56
2024/01/23 07:17:00;;;;;;;0.30;0.15;;;;;;;;;;5056454;28;20341;-56
2024/01/23 07:19:26;;;;;;;2.63;0.30;;;;;;;;;;5056345;28;20021;-55
2024/01/23 07:21:52;;;;;;;0.82;0.28;;;;;;;;;;5055715;28;20064;-57
2024/01/23 07:24:18;;;;;;;2.10;0.40;;;;;;;;;;5056320;28;20053;-52
2024/01/23 07:26:44;;;;;;;3.70;0.70;;;;;;;;;;5055674;28;20424;-55
2024/01/23 07:29:10;;;;;;;2.92;0.68;;;;;;;;;;5055484;28;20116;-55
2024/01/23 07:31:36;;;;;;;3.10;0.30;;;;;;;;;;5055692;28;20136;-55
2024/01/23 07:34:02;;;;;;;0.77;0.32;;;;;;;;;;5055600;28;20025;-54
2024/01/23 07:36:28;;;;;;;2.10;0.63;;;;;;;;;;5055604;28;20025;-55
2024/01/23 07:38:54;;;;;;;2.30;0.68;;;;;;;;;;5056430;28;20465;-52
2024/01/23 07:41:20;;;;;;;1.77;0.45;;;;;;;;;;5055915;28;20025;-55
2024/01/23 07:43:46;;;;;;;0.93;0.40;;;;;;;;;;5055537;28;20123;-53
2024/01/23 07:46:12;;;;;;;3.25;0.63;;;;;;;;;;5055427;28;20040;-54
2024/01/23 07:48:38;;;;;;;2.00;0.60;;;;;;;;;;5055951;28;20064;-54
2024/01/23 07:51:04;;;;;;;1.58;0.73;;;;;;;;;;5055037;28;20507;-58
2024/01/23 07:53:32;;;;;;;1.05;0.45;;;;;;;;;;5055005;28;20064;-57
2024/01/23 07:55:58;;;;;;;2.40;0.70;;;;;;;;;;5055762;28;20102;-57
2024/01/23 07:58:24;;;;;;;0.98;0.30;;;;;;;;;;5055797;28;20417;-57
2024/01/23 08:00:50;;;;;;;1.45;0.57;;;;;;;;;;5054858;28;20025;-57
2024/01/23 08:03:16;;;;;;;7.07;0.73;;;;;;;;;;5054929;28;20029;-58
2024/01/23 08:05:42;;;;;;;1.13;0.52;;;;;;;;;;5055211;28;20041;-56
2024/01/23 08:08:07;;;;;;;1.73;0.70;;;;;;;;;;5055513;28;20144;-56
2024/01/23 08:10:34;;;;;;;6.38;1.00;;;;;;;;;;5054395;28;20063;-56
2024/01/23 08:13:00;;;;;;;9.07;1.40;;;;;;;;;;5054716;28;20162;-56
2024/01/23 08:15:26;;;;;;;3.40;1.17;;;;;;;;;;5055078;28;20021;-58
2024/01/23 08:17:52;;;;;;;1.67;0.65;;;;;;;;;;5055106;28;20025;-58
2024/01/23 08:20:18;;;;;;;6.13;0.98;;;;;;;;;;5054727;28;20459;-56
2024/01/23 08:22:44;;;;;;;2.85;0.70;;;;;;;;;;5054638;28;20039;-56
2024/01/23 08:25:10;;;;;;;1.55;0.60;;;;;;;;;;5054715;28;20068;-57
2024/01/23 08:27:36;;;;;;;1.42;0.73;;;;;;;;;;5054921;28;20060;-58
2024/01/23 08:30:02;;;;;;;3.75;0.80;;;;;;;;;;5054539;28;20033;-57
2024/01/23 08:32:28;;;;;;;2.70;0.90;;;;;;;;;;5054481;28;20036;-58
2024/01/23 08:34:54;;;;;;;1.98;0.60;;;;;;;;;;5054948;28;20039;-57
2024/01/23 08:37:20;;;;;;;1.58;0.68;;;;;;;;;;5053647;28;20459;-56
2024/01/23 08:39:46;;;;;;;0.47;0.30;;;;;;;;;;5054590;28;20029;-57
2024/01/23 08:42:12;;;;;;;2.88;0.95;;;;;;;;;;5054232;28;20036;-57
2024/01/23 08:44:40;;;;;;;5.00;0.90;;;;;;;;;;5054245;28;20025;-58
2024/01/23 08:47:06;;;;;;;3.83;1.60;;;;;;;;;;5054176;28;20028;-57
2024/01/23 08:49:32;;;;;;;3.33;0.90;;;;;;;;;;5054272;28;20029;-56
2024/01/23 08:51:58;;;;;;;7.35;0.73;;;;;;;;;;5054232;28;20414;-56
2024/01/23 08:54:24;;;;;;;3.30;1.02;;;;;;;;;;5054022;28;20052;-56
2024/01/23 08:56:50;;;;;;;9.52;1.08;;;;;;;;;;5054668;28;20116;-55
2024/01/23 08:59:16;;;;;;;11.13;1.13;;;;;;;;;;5054005;28;20017;-55
2024/01/23 09:01:42;;;;;;;6.10;0.80;;;;;;;;;;5053917;28;20036;-52
2024/01/23 09:04:08;;;;;;;1.63;0.63;;;;;;;;;;5053991;28;20037;-53
2024/01/23 09:06:34;;;;;;;1.63;0.90;;;;;;;;;;5053891;28;20458;-55
2024/01/23 09:09:00;;;;;;;3.50;1.05;;;;;;;;;;5054480;28;20021;-56
2024/01/23 09:11:26;;;;;;;2.55;0.88;;;;;;;;;;5053443;28;20026;-55
2024/01/23 09:13:52;;;;;;;3.30;1.50;;;;;;;;;;5053800;28;20033;-54
2024/01/23 09:16:18;;;;;;;4.00;0.77;;;;;;;;;;5054280;28;20085;-56
2024/01/23 09:18:48;;;;;;;5.00;0.82;;;;;;;;;;5054404;28;20028;-55
2024/01/23 09:21:14;;;;;;;1.35;0.75;;;;;;;;;;5053882;28;20037;-54
2024/01/23 09:23:40;;;;;;;3.22;1.00;;;;;;;;;;5053669;28;20139;-55
2024/01/23 09:26:06;;;;;;;4.43;0.80;;;;;;;;;;5053732;28;20057;-56
2024/01/23 09:28:32;;;;;;;5.72;1.63;;;;;;;;;;5053068;28;20025;-54
2024/01/23 09:30:58;;;;;;;2.58;1.10;;;;;;;;;;5053355;28;20025;-53
2024/01/23 09:33:24;;;;;;;2.22;0.68;;;;;;;;;;5053595;28;20100;-53
2024/01/23 09:35:50;;;;;;;4.22;1.08;;;;;;;;;;5053564;28;20083;-53
2024/01/23 09:38:16;;;;;;;2.25;0.55;;;;;;;;;;5053884;28;20035;-55
2024/01/23 09:40:42;;;;;;;3.58;0.85;;;;;;;;;;5054367;28;20355;-53
2024/01/23 09:43:11;;;;;;;1.52;0.80;;;;;;;;;;5053486;28;20419;-55
2024/01/23 09:45:39;;;;;;;0.95;0.57;;;;;;;;;;5053551;28;20448;-55
2024/01/23 09:48:05;;;;;;;1.38;0.50;;;;;;;;;;5054080;28;20064;-54
2024/01/23 09:50:31;;;;;;;1.80;0.60;;;;;;;;;;5053455;28;20146;-56
2024/01/23 09:52:59;;;;;;;2.05;0.80;;;;;;;;;;5053382;28;20474;-55
2024/01/23 09:55:25;;;;;;;2.33;1.08;;;;;;;;;;5053620;28;20427;-56
2024/01/23 09:57:52;;;;;;;2.60;0.82;;;;;;;;;;5054291;28;20027;-56
2024/01/23 10:00:18;;;;;;;2.60;1.02;;;;;;;;;;5053309;28;20029;-56
2024/01/23 10:02:45;;;;;;;3.08;0.70;;;;;;;;;;5053359;28;20071;-54
2024/01/23 10:05:11;;;;;;;2.13;0.50;;;;;;;;;;5053047;28;20056;-52
2024/01/23 10:07:38;;;;;;;3.58;1.10;;;;;;;;;;5053374;28;20036;-55
2024/01/23 10:10:13;;;;;;;1.65;0.95;;;;;;;;;;5053312;28;20033;-55
2024/01/23 10:12:39;;;;;;;3.75;1.48;;;;;;;;;;5053421;28;20033;-53
2024/01/23 10:15:05;;;;;;;3.47;1.13;;;;;;;;;;5053624;28;20107;-54
2024/01/23 10:17:31;;;;;;;2.80;1.13;;;;;;;;;;5053622;28;20127;-53
2024/01/23 10:19:57;;;;;;;7.00;0.93;;;;;;;;;;5053268;28;20056;-56
2024/01/23 10:22:23;;;;;;;9.80;2.00;;;;;;;;;;5053674;28;20354;-56
2024/01/23 10:24:50;;;;;;;4.00;1.40;;;;;;;;;;5053310;28;20033;-57
2024/01/23 10:27:17;;;;;;;2.55;0.93;;;;;;;;;;5053297;28;20029;-56
2024/01/23 10:29:43;;;;;;;2.05;0.90;;;;;;;;;;5053416;28;20029;-56
2024/01/23 10:32:09;;;;;;;5.65;1.10;;;;;;;;;;5053334;28;20035;-54
2024/01/23 10:34:35;;;;;;;2.10;1.00;;;;;;;;;;5053902;28;20056;-55
2024/01/23 10:37:01;;;;;;;4.93;1.23;;;;;;;;;;5053660;28;20083;-54
2024/01/23 10:39:27;;;;;;;2.13;0.68;;;;;;;;;;5055252;28;20025;-56
2024/01/23 10:41:53;;;;;;;8.90;2.25;;;;;;;;;;5056255;28;20109;-54
2024/01/23 10:44:22;;;;;;;4.13;1.60;;;;;;;;;;5056638;28;20119;-56
2024/01/23 10:46:49;;;;;;;4.85;1.30;;;;;;;;;;5056548;28;20032;-56
2024/01/23 10:49:15;;;;;;;5.60;1.67;;;;;;;;;;5057069;28;20363;-55
2024/01/23 10:51:45;;;;;;;6.85;2.35;;;;;;;;;;5056451;28;20087;-56
2024/01/23 10:54:15;;;;;;;4.80;2.13;;;;;;;;;;5056172;28;20029;-56
2024/01/23 10:56:45;;;;;;;3.17;1.17;;;;;;;;;;5056398;28;20034;-55
2024/01/23 10:59:18;;;;;;;8.27;1.52;;;;;;;;;;5056297;28;20059;-56
2024/01/23 11:01:48;;;;;;;4.05;1.48;;;;;;;;;;5055895;28;20466;-54
2024/01/23 11:04:15;;;;;;;6.80;1.88;;;;;;;;;;5056180;28;20052;-56
2024/01/23 11:06:50;;;;;;;4.45;1.17;;;;;;;;;;5056100;28;20029;-56
2024/01/23 11:09:24;;;;;;;4.32;1.42;;;;;;;;;;5056532;28;20021;-54
2024/01/23 11:11:53;;;;;;;5.00;1.58;;;;;;;;;;5055872;28;20107;-54
2024/01/23 11:14:21;;;;;;;4.22;1.73;;;;;;;;;;5056229;28;20397;-57
2024/01/23 11:17:07;;;;;;;2.60;1.10;;;;;;;;;;5056751;28;20160;-55
2024/01/23 11:19:42;;;;;;;4.43;1.80;;;;;;;;;;5056761;28;20355;-56
2024/01/23 11:22:09;;;;;;;2.40;1.00;;;;;;;;;;5055792;28;20025;-53
2024/01/23 11:24:38;;;;;;;5.90;1.42;;;;;;;;;;5055787;28;20475;-55
2024/01/23 11:27:05;;;;;;;4.45;2.03;;;;;;;;;;5056290;28;20021;-53
2024/01/23 11:29:31;;;;;;;5.72;1.25;;;;;;;;;;5055399;28;20024;-54
2024/01/23 11:31:57;;;;;;;6.78;1.67;;;;;;;;;;5055632;28;20025;-54
2024/01/23 11:34:23;;;;;;;3.97;0.90;;;;;;;;;;5055643;28;20066;-56
2024/01/23 11:36:49;;;;;;;4.82;1.85;;;;;;;;;;5055410;28;20481;-53
2024/01/23 11:39:16;;;;;;;4.72;1.02;;;;;;;;;;5056355;28;20021;-56
2024/01/23 11:41:48;;;;;;;4.47;1.17;;;;;;;;;;5055076;28;20045;-52
2024/01/23 11:44:14;;;;;;;6.07;1.38;;;;;;;;;;5056005;28;20083;-53
2024/01/23 11:46:41;;;;;;;8.70;1.58;;;;;;;;;;5055394;28;20032;-56
2024/01/23 11:49:07;;;;;;;4.78;1.50;;;;;;;;;;5055905;28;20063;-56
2024/01/23 11:51:36;;;;;;;2.80;1.02;;;;;;;;;;5054633;28;20075;-54
2024/01/23 11:54:05;;;;;;;5.38;1.15;;;;;;;;;;5054853;28;20025;-54
2024/01/23 11:56:31;;;;;;;5.38;1.70;;;;;;;;;;5055820;28;20068;-54
2024/01/23 11:58:58;;;;;;;7.20;1.67;;;;;;;;;;5055821;28;20033;-55
2024/01/23 12:01:24;;;;;;;4.07;1.73;;;;;;;;;;5055670;28;20033;-55
2024/01/23 12:03:51;;;;;;;4.55;1.35;;;;;;;;;;5054977;28;20039;-54
2024/01/23 12:06:19;;;;;;;8.68;1.33;;;;;;;;;;5055270;28;20055;-54
2024/01/23 12:08:46;;;;;;;5.70;1.75;;;;;;;;;;5055538;28;20029;-56
2024/01/23 12:11:16;;;;;;;2.25;0.93;;;;;;;;;;5054972;28;20120;-55
2024/01/23 12:13:48;;;;;;;3.28;1.63;;;;;;;;;;5054601;28;20500;-56
2024/01/23 12:16:15;;;;;;;4.93;1.42;;;;;;;;;;5054540;28;20033;-53
2024/01/23 12:18:41;;;;;;;3.90;1.27;;;;;;;;;;5055074;28;20021;-55
2024/01/23 12:21:07;;;;;;;5.78;1.63;;;;;;;;;;5055108;28;20151;-55
2024/01/23 12:23:33;;;;;;;4.45;1.80;;;;;;;;;;5055073;28;20029;-53
2024/01/23 12:26:00;;;;;;;3.15;1.35;;;;;;;;;;5054656;28;20029;-53
2024/01/23 12:28:32;;;;;;;3.38;1.40;;;;;;;;;;5055148;28;20025;-54
2024/01/23 12:30:58;;;;;;;5.82;1.20;;;;;;;;;;5054829;28;20093;-54
2024/01/23 12:33:25;;;;;;;6.18;1.73;;;;;;;;;;5054294;28;20054;-57
2024/01/23 12:35:52;;;;;;;4.55;1.42;;;;;;;;;;5054936;28;20111;-58
2024/01/23 12:38:18;;;;;;;3.22;1.00;;;;;;;;;;5052961;28;20123;-56
2024/01/23 12:40:44;;;;;;;4.75;1.10;;;;;;;;;;5055154;28;20037;-57
2024/01/23 12:43:11;;;;;;;7.68;1.30;;;;;;;;;;5054783;28;20039;-55
2024/01/23 12:45:37;;;;;;;4.22;1.63;;;;;;;;;;5054548;28;20029;-56
2024/01/23 12:48:05;;;;;;;9.98;1.67;;;;;;;;;;5054449;28;20098;-56
2024/01/23 12:50:31;;;;;;;8.07;1.23;;;;;;;;;;5053933;28;20386;-52
2024/01/23 12:52:58;;;;;;;3.72;1.45;;;;;;;;;;5054138;28;20079;-56
2024/01/23 12:55:24;;;;;;;3.17;1.02;;;;;;;;;;5053892;28;20057;-56
2024/01/23 12:57:51;;;;;;;4.32;1.10;;;;;;;;;;5054150;28;20546;-55
2024/01/23 13:00:18;;;;;;;2.90;1.55;;;;;;;;;;5054881;28;20388;-55
2024/01/23 13:02:44;;;;;;;3.95;1.15;;;;;;;;;;5053063;28;20398;-56
2024/01/23 13:05:17;;;;;;;4.05;1.35;;;;;;;;;;5054058;28;20032;-56
2024/01/23 13:07:44;;;;;;;4.75;1.10;;;;;;;;;;5054010;28;20033;-54
2024/01/23 13:10:11;;;;;;;3.05;1.15;;;;;;;;;;5054017;28;20033;-52
2024/01/23 13:12:37;;;;;;;3.60;1.30;;;;;;;;;;5053667;28;20033;-57
2024/01/23 13:15:04;;;;;;;2.50;1.00;;;;;;;;;;5054159;28;20029;-55
2024/01/23 13:17:30;;;;;;;3.58;1.70;;;;;;;;;;5053769;28;20481;-56
2024/01/23 13:19:56;;;;;;;2.60;1.08;;;;;;;;;;5054305;28;20025;-55
2024/01/23 13:22:22;;;;;;;4.72;1.38;;;;;;;;;;5053709;28;20032;-55
2024/01/23 13:24:48;;;;;;;5.07;1.42;;;;;;;;;;5053977;28;20451;-52
2024/01/23 13:27:15;;;;;;;4.05;1.40;;;;;;;;;;5053315;28;20497;-56
2024/01/23 13:29:41;;;;;;;3.53;1.20;;;;;;;;;;5054839;28;20028;-55
2024/01/23 13:32:08;;;;;;;4.60;1.30;;;;;;;;;;5054208;28;20021;-55
2024/01/23 13:34:34;;;;;;;3.30;1.25;;;;;;;;;;5054212;28;20537;-53
2024/01/23 13:37:03;;;;;;;4.03;1.70;;;;;;;;;;5053659;28;20036;-56
2024/01/23 13:39:29;;;;;;;2.55;1.73;;;;;;;;;;5053910;28;20372;-51
2024/01/23 13:41:55;;;;;;;6.45;0.88;;;;;;;;;;5053493;28;20021;-53
2024/01/23 13:44:21;;;;;;;6.30;2.00;;;;;;;;;;5053261;28;20512;-53
2024/01/23 13:46:47;;;;;;;8.10;1.90;;;;;;;;;;5053739;28;20056;-54
2024/01/23 13:49:13;;;;;;;4.18;1.00;;;;;;;;;;5054206;28;20049;-53
2024/01/23 13:51:39;;;;;;;4.00;1.23;;;;;;;;;;5053180;28;20371;-57
2024/01/23 13:54:06;;;;;;;3.92;0.70;;;;;;;;;;5053300;28;20029;-57
2024/01/23 13:56:34;;;;;;;5.28;1.85;;;;;;;;;;5053977;28;20035;-58
2024/01/23 13:59:00;;;;;;;4.53;0.98;;;;;;;;;;5053626;28;20041;-54
2024/01/23 14:01:26;;;;;;;5.00;0.80;;;;;;;;;;5053384;28;20111;-57
2024/01/23 14:03:52;;;;;;;4.55;1.42;;;;;;;;;;5053292;28;20468;-58
2024/01/23 14:06:18;;;;;;;2.58;0.98;;;;;;;;;;5053784;28;20393;-56
2024/01/23 14:08:45;;;;;;;3.45;1.48;;;;;;;;;;5053900;28;20071;-56
2024/01/23 14:11:11;;;;;;;2.20;0.82;;;;;;;;;;5053780;28;20033;-54
2024/01/23 14:13:37;;;;;;;3.20;1.15;;;;;;;;;;5053779;28;20033;-56
2024/01/23 14:16:03;;;;;;;4.90;1.48;;;;;;;;;;5057022;28;20087;-57
2024/01/23 14:18:29;;;;;;;2.47;1.10;;;;;;;;;;5057544;28;20029;-56
2024/01/23 14:20:55;;;;;;;2.90;0.95;;;;;;;;;;5056885;28;20025;-56
2024/01/23 14:23:21;;;;;;;2.60;1.30;;;;;;;;;;5056907;28;20061;-55
2024/01/23 14:25:47;;;;;;;3.35;1.27;;;;;;;;;;5057352;28;20035;-56
2024/01/23 14:28:14;;;;;;;4.93;1.45;;;;;;;;;;5057293;28;20021;-55
2024/01/23 14:30:40;;;;;;;1.98;1.00;;;;;;;;;;5056688;28;20063;-54
2024/01/23 14:33:06;;;;;;;1.83;1.00;;;;;;;;;;5056539;28;20032;-56
2024/01/23 14:35:32;;;;;;;3.55;1.23;;;;;;;;;;5056339;28;20107;-57
2024/01/23 14:37:58;;;;;;;5.05;1.17;;;;;;;;;;5056755;28;20052;-57